sensor_id;sensor_type;location;lat;lon;timestamp;P1;durP1;ratioP1;P2;durP2;ratioP2
32876;SDS011;19226;51.600;8.034;2023-04-01T00:02:09;1.40;;;0.50;;
32876;SDS011;19226;51.600;8.034;2023-04-01T00:04:53;0.80;;;0.65;;
32876;SDS011;19226;51.600;8.034;2023-04-01T00:07:38;2.92;;;0.80;;
32876;SDS011;19226;51.600;8.034;2023-04-01T00:10:24;3.13;;;0.68;;
32876;SDS011;19226;51.600;8.034;2023-04-01T00:13:08;5.97;;;0.77;;
32876;SDS011;19226;51.600;8.034;2023-04-01T00:15:54;2.22;;;0.47;;
32876;SDS011;19226;51.600;8.034;2023-04-01T00:18:39;1.13;;;0.60;;
32876;SDS011;19226;51.600;8.034;2023-04-01T00:21:24;1.65;;;0.70;;
32876;SDS011;19226;51.600;8.034;2023-04-01T00:24:08;4.22;;;0.65;;
32876;SDS011;19226;51.600;8.034;2023-04-01T00:26:53;2.42;;;0.90;;
32876;SDS011;19226;51.600;8.034;2023-04-01T00:29:41;0.95;;;0.60;;
32876;SDS011;19226;51.600;8.034;2023-04-01T00:32:30;1.10;;;0.70;;
32876;SDS011;19226;51.600;8.034;2023-04-01T00:35:15;1.98;;;0.80;;
32876;SDS011;19226;51.600;8.034;2023-04-01T00:38:00;1.20;;;0.80;;
32876;SDS011;19226;51.600;8.034;2023-04-01T00:40:45;3.15;;;0.80;;
32876;SDS011;19226;51.600;8.034;2023-04-01T00:43:30;4.32;;;0.80;;
32876;SDS011;19226;51.600;8.034;2023-04-01T00:46:15;5.90;;;0.60;;
32876;SDS011;19226;51.600;8.034;2023-04-01T00:49:00;4.57;;;0.93;;
32876;SDS011;19226;51.600;8.034;2023-04-01T00:51:46;4.40;;;0.70;;
32876;SDS011;19226;51.600;8.034;2023-04-01T00:54:34;1.25;;;0.65;;
32876;SDS011;19226;51.600;8.034;2023-04-01T00:57:21;1.67;;;0.65;;
32876;SDS011;19226;51.600;8.034;2023-04-01T01:00:13;1.02;;;0.55;;
32876;SDS011;19226;51.600;8.034;2023-04-01T01:02:59;3.40;;;0.73;;
32876;SDS011;19226;51.600;8.034;2023-04-01T01:08:47;3.35;;;0.60;;
32876;SDS011;19226;51.600;8.034;2023-04-01T01:11:55;0.68;;;0.47;;
32876;SDS011;19226;51.600;8.034;2023-04-01T01:14:48;1.80;;;0.73;;
32876;SDS011;19226;51.600;8.034;2023-04-01T01:23:50;3.22;;;0.70;;
32876;SDS011;19226;51.600;8.034;2023-04-01T01:27:00;1.70;;;0.85;;
32876;SDS011;19226;51.600;8.034;2023-04-01T01:36:09;6.53;;;0.55;;
32876;SDS011;19226;51.600;8.034;2023-04-01T01:41:43;0.43;;;0.40;;
32876;SDS011;19226;51.600;8.034;2023-04-01T01:44:33;1.98;;;0.65;;
32876;SDS011;19226;51.600;8.034;2023-04-01T01:47:19;2.20;;;0.50;;
32876;SDS011;19226;51.600;8.034;2023-04-01T01:50:07;0.77;;;0.40;;
32876;SDS011;19226;51.600;8.034;2023-04-01T01:53:00;3.30;;;0.52;;
32876;SDS011;19226;51.600;8.034;2023-04-01T01:55:46;0.95;;;0.50;;
32876;SDS011;19226;51.600;8.034;2023-04-01T02:01:27;2.45;;;0.40;;
32876;SDS011;19226;51.600;8.034;2023-04-01T02:04:21;1.15;;;0.40;;
32876;SDS011;19226;51.600;8.034;2023-04-01T02:07:08;1.45;;;0.50;;
32876;SDS011;19226;51.600;8.034;2023-04-01T02:09:58;1.45;;;0.50;;
32876;SDS011;19226;51.600;8.034;2023-04-01T02:12:44;1.30;;;0.70;;
32876;SDS011;19226;51.600;8.034;2023-04-01T02:15:31;0.63;;;0.38;;
32876;SDS011;19226;51.600;8.034;2023-04-01T02:18:21;0.82;;;0.40;;
32876;SDS011;19226;51.600;8.034;2023-04-01T02:21:06;0.52;;;0.40;;
32876;SDS011;19226;51.600;8.034;2023-04-01T02:23:53;3.50;;;0.55;;
32876;SDS011;19226;51.600;8.034;2023-04-01T02:26:40;1.00;;;0.50;;
32876;SDS011;19226;51.600;8.034;2023-04-01T02:29:25;0.32;;;0.32;;
32876;SDS011;19226;51.600;8.034;2023-04-01T02:32:10;1.45;;;0.40;;
32876;SDS011;19226;51.600;8.034;2023-04-01T02:34:58;0.52;;;0.50;;
32876;SDS011;19226;51.600;8.034;2023-04-01T02:37:44;1.38;;;0.40;;
32876;SDS011;19226;51.600;8.034;2023-04-01T02:40:42;0.40;;;0.40;;
32876;SDS011;19226;51.600;8.034;2023-04-01T02:43:28;1.23;;;0.40;;
32876;SDS011;19226;51.600;8.034;2023-04-01T02:46:13;0.30;;;0.30;;
32876;SDS011;19226;51.600;8.034;2023-04-01T02:48:58;1.52;;;0.50;;
32876;SDS011;19226;51.600;8.034;2023-04-01T02:51:42;0.45;;;0.30;;
32876;SDS011;19226;51.600;8.034;2023-04-01T02:54:27;0.95;;;0.40;;
32876;SDS011;19226;51.600;8.034;2023-04-01T02:57:12;1.77;;;0.40;;
32876;SDS011;19226;51.600;8.034;2023-04-01T02:59:56;0.65;;;0.47;;
32876;SDS011;19226;51.600;8.034;2023-04-01T03:02:41;0.30;;;0.30;;
32876;SDS011;19226;51.600;8.034;2023-04-01T03:05:26;0.68;;;0.32;;
32876;SDS011;19226;51.600;8.034;2023-04-01T03:08:10;0.55;;;0.55;;
32876;SDS011;19226;51.600;8.034;2023-04-01T03:10:55;0.65;;;0.50;;
32876;SDS011;19226;51.600;8.034;2023-04-01T03:13:40;1.20;;;0.50;;
32876;SDS011;19226;51.600;8.034;2023-04-01T03:16:24;2.92;;;0.40;;
32876;SDS011;19226;51.600;8.034;2023-04-01T03:19:09;0.30;;;0.30;;
32876;SDS011;19226;51.600;8.034;2023-04-01T03:21:54;1.05;;;0.68;;
32876;SDS011;19226;51.600;8.034;2023-04-01T03:24:39;0.60;;;0.50;;
32876;SDS011;19226;51.600;8.034;2023-04-01T03:27:24;0.30;;;0.30;;
32876;SDS011;19226;51.600;8.034;2023-04-01T03:30:08;1.05;;;0.30;;
32876;SDS011;19226;51.600;8.034;2023-04-01T03:33:01;0.85;;;0.32;;
32876;SDS011;19226;51.600;8.034;2023-04-01T03:35:48;0.30;;;0.30;;
32876;SDS011;19226;51.600;8.034;2023-04-01T03:38:37;0.50;;;0.40;;
32876;SDS011;19226;51.600;8.034;2023-04-01T03:41:21;0.35;;;0.35;;
32876;SDS011;19226;51.600;8.034;2023-04-01T03:44:05;2.03;;;0.40;;
32876;SDS011;19226;51.600;8.034;2023-04-01T03:46:50;0.40;;;0.40;;
32876;SDS011;19226;51.600;8.034;2023-04-01T03:49:35;1.65;;;0.40;;
32876;SDS011;19226;51.600;8.034;2023-04-01T03:52:20;0.50;;;0.40;;
32876;SDS011;19226;51.600;8.034;2023-04-01T03:55:05;2.40;;;0.60;;
32876;SDS011;19226;51.600;8.034;2023-04-01T03:57:50;0.30;;;0.30;;
32876;SDS011;19226;51.600;8.034;2023-04-01T04:00:36;0.35;;;0.35;;
32876;SDS011;19226;51.600;8.034;2023-04-01T04:03:20;0.65;;;0.47;;
32876;SDS011;19226;51.600;8.034;2023-04-01T04:06:10;0.52;;;0.40;;
32876;SDS011;19226;51.600;8.034;2023-04-01T04:08:55;0.20;;;0.20;;
32876;SDS011;19226;51.600;8.034;2023-04-01T04:11:40;1.10;;;0.50;;
32876;SDS011;19226;51.600;8.034;2023-04-01T04:14:25;0.45;;;0.45;;
32876;SDS011;19226;51.600;8.034;2023-04-01T04:17:10;0.30;;;0.30;;
32876;SDS011;19226;51.600;8.034;2023-04-01T04:20:00;0.32;;;0.32;;
32876;SDS011;19226;51.600;8.034;2023-04-01T04:22:45;0.30;;;0.30;;
32876;SDS011;19226;51.600;8.034;2023-04-01T04:25:29;2.50;;;0.40;;
32876;SDS011;19226;51.600;8.034;2023-04-01T04:28:14;0.30;;;0.30;;
32876;SDS011;19226;51.600;8.034;2023-04-01T04:30:59;1.52;;;0.40;;
32876;SDS011;19226;51.600;8.034;2023-04-01T04:33:44;0.35;;;0.30;;
32876;SDS011;19226;51.600;8.034;2023-04-01T04:36:28;0.30;;;0.30;;
32876;SDS011;19226;51.600;8.034;2023-04-01T04:39:13;0.30;;;0.30;;
32876;SDS011;19226;51.600;8.034;2023-04-01T04:41:59;0.70;;;0.40;;
32876;SDS011;19226;51.600;8.034;2023-04-01T04:44:44;1.17;;;0.30;;
32876;SDS011;19226;51.600;8.034;2023-04-01T04:47:28;0.82;;;0.50;;
32876;SDS011;19226;51.600;8.034;2023-04-01T04:50:13;0.70;;;0.30;;
32876;SDS011;19226;51.600;8.034;2023-04-01T04:52:58;0.60;;;0.45;;
32876;SDS011;19226;51.600;8.034;2023-04-01T04:55:44;2.25;;;0.50;;
32876;SDS011;19226;51.600;8.034;2023-04-01T04:58:52;0.57;;;0.40;;
32876;SDS011;19226;51.600;8.034;2023-04-01T05:01:40;2.80;;;0.40;;
32876;SDS011;19226;51.600;8.034;2023-04-01T05:04:25;0.30;;;0.30;;
32876;SDS011;19226;51.600;8.034;2023-04-01T05:07:10;3.17;;;0.40;;
32876;SDS011;19226;51.600;8.034;2023-04-01T05:09:54;0.40;;;0.40;;
32876;SDS011;19226;51.600;8.034;2023-04-01T05:12:39;0.40;;;0.38;;
32876;SDS011;19226;51.600;8.034;2023-04-01T05:15:26;3.00;;;0.50;;
32876;SDS011;19226;51.600;8.034;2023-04-01T05:18:12;0.95;;;0.30;;
32876;SDS011;19226;51.600;8.034;2023-04-01T05:20:57;1.35;;;0.40;;
32876;SDS011;19226;51.600;8.034;2023-04-01T05:23:42;0.30;;;0.30;;
32876;SDS011;19226;51.600;8.034;2023-04-01T05:26:27;0.63;;;0.40;;
32876;SDS011;19226;51.600;8.034;2023-04-01T05:29:11;0.43;;;0.43;;
32876;SDS011;19226;51.600;8.034;2023-04-01T05:31:57;0.30;;;0.30;;
32876;SDS011;19226;51.600;8.034;2023-04-01T05:34:41;1.25;;;0.40;;
32876;SDS011;19226;51.600;8.034;2023-04-01T05:37:26;0.38;;;0.38;;
32876;SDS011;19226;51.600;8.034;2023-04-01T05:40:11;0.50;;;0.50;;
32876;SDS011;19226;51.600;8.034;2023-04-01T05:42:56;0.50;;;0.50;;
32876;SDS011;19226;51.600;8.034;2023-04-01T05:45:40;0.40;;;0.40;;
32876;SDS011;19226;51.600;8.034;2023-04-01T05:48:47;1.67;;;0.40;;
32876;SDS011;19226;51.600;8.034;2023-04-01T05:51:32;0.60;;;0.60;;
32876;SDS011;19226;51.600;8.034;2023-04-01T05:54:17;0.40;;;0.40;;
32876;SDS011;19226;51.600;8.034;2023-04-01T05:57:02;0.50;;;0.50;;
32876;SDS011;19226;51.600;8.034;2023-04-01T05:59:47;0.50;;;0.50;;
32876;SDS011;19226;51.600;8.034;2023-04-01T06:02:32;1.15;;;0.50;;
32876;SDS011;19226;51.600;8.034;2023-04-01T06:05:18;0.50;;;0.32;;
32876;SDS011;19226;51.600;8.034;2023-04-01T06:08:12;1.25;;;0.60;;
32876;SDS011;19226;51.600;8.034;2023-04-01T06:14:09;1.40;;;0.50;;
32876;SDS011;19226;51.600;8.034;2023-04-01T06:20:37;0.40;;;0.40;;
32876;SDS011;19226;51.600;8.034;2023-04-01T06:32:33;0.30;;;0.30;;
32876;SDS011;19226;51.600;8.034;2023-04-01T06:54:32;0.40;;;0.40;;
32876;SDS011;19226;51.600;8.034;2023-04-01T06:57:49;0.40;;;0.40;;
32876;SDS011;19226;51.600;8.034;2023-04-01T07:00:39;0.50;;;0.50;;
32876;SDS011;19226;51.600;8.034;2023-04-01T07:03:32;2.05;;;0.50;;
32876;SDS011;19226;51.600;8.034;2023-04-01T07:06:32;1.23;;;0.47;;
32876;SDS011;19226;51.600;8.034;2023-04-01T07:09:24;1.23;;;0.30;;
32876;SDS011;19226;51.600;8.034;2023-04-01T07:12:40;0.40;;;0.40;;
32876;SDS011;19226;51.600;8.034;2023-04-01T07:15:43;0.50;;;0.50;;
32876;SDS011;19226;51.600;8.034;2023-04-01T07:18:42;0.40;;;0.40;;
32876;SDS011;19226;51.600;8.034;2023-04-01T07:21:47;0.93;;;0.57;;
32876;SDS011;19226;51.600;8.034;2023-04-01T07:24:44;0.30;;;0.30;;
32876;SDS011;19226;51.600;8.034;2023-04-01T07:27:29;0.40;;;0.40;;
32876;SDS011;19226;51.600;8.034;2023-04-01T07:30:15;0.40;;;0.40;;
32876;SDS011;19226;51.600;8.034;2023-04-01T07:33:08;0.20;;;0.20;;
32876;SDS011;19226;51.600;8.034;2023-04-01T07:58:17;0.22;;;0.22;;
32876;SDS011;19226;51.600;8.034;2023-04-01T08:01:40;0.30;;;0.30;;
32876;SDS011;19226;51.600;8.034;2023-04-01T08:14:19;3.20;;;0.70;;
32876;SDS011;19226;51.600;8.034;2023-04-01T08:17:31;1.00;;;0.90;;
32876;SDS011;19226;51.600;8.034;2023-04-01T08:23:36;0.40;;;0.40;;
32876;SDS011;19226;51.600;8.034;2023-04-01T08:26:31;0.60;;;0.60;;
32876;SDS011;19226;51.600;8.034;2023-04-01T08:29:21;0.40;;;0.40;;
32876;SDS011;19226;51.600;8.034;2023-04-01T08:32:11;0.50;;;0.50;;
32876;SDS011;19226;51.600;8.034;2023-04-01T08:38:14;0.75;;;0.50;;
32876;SDS011;19226;51.600;8.034;2023-04-01T08:41:11;1.75;;;0.50;;
32876;SDS011;19226;51.600;8.034;2023-04-01T08:48:19;0.45;;;0.45;;
32876;SDS011;19226;51.600;8.034;2023-04-01T08:51:18;0.88;;;0.60;;
32876;SDS011;19226;51.600;8.034;2023-04-01T08:54:27;1.15;;;0.50;;
32876;SDS011;19226;51.600;8.034;2023-04-01T09:00:57;1.13;;;0.40;;
32876;SDS011;19226;51.600;8.034;2023-04-01T09:07:06;0.90;;;0.70;;
32876;SDS011;19226;51.600;8.034;2023-04-01T09:23:02;0.45;;;0.45;;
32876;SDS011;19226;51.600;8.034;2023-04-01T09:35:24;0.52;;;0.52;;
32876;SDS011;19226;51.600;8.034;2023-04-01T09:45:25;0.60;;;0.40;;
32876;SDS011;19226;51.600;8.034;2023-04-01T09:51:48;0.88;;;0.50;;
32876;SDS011;19226;51.600;8.034;2023-04-01T10:07:29;0.40;;;0.40;;
32876;SDS011;19226;51.600;8.034;2023-04-01T10:42:23;0.80;;;0.80;;
32876;SDS011;19226;51.600;8.034;2023-04-01T11:24:37;2.08;;;1.50;;
32876;SDS011;19226;51.600;8.034;2023-04-01T11:36:57;2.00;;;1.60;;
32876;SDS011;19226;51.600;8.034;2023-04-01T11:43:43;1.40;;;1.30;;
32876;SDS011;19226;51.600;8.034;2023-04-01T11:53:08;2.00;;;1.88;;
32876;SDS011;19226;51.600;8.034;2023-04-01T11:56:00;2.42;;;2.22;;
32876;SDS011;19226;51.600;8.034;2023-04-01T12:02:09;2.85;;;2.60;;
32876;SDS011;19226;51.600;8.034;2023-04-01T12:17:34;3.15;;;2.85;;
32876;SDS011;19226;51.600;8.034;2023-04-01T12:20:34;3.10;;;2.90;;
32876;SDS011;19226;51.600;8.034;2023-04-01T12:23:49;3.13;;;2.92;;
32876;SDS011;19226;51.600;8.034;2023-04-01T12:26:39;3.00;;;2.80;;
32876;SDS011;19226;51.600;8.034;2023-04-01T12:32:56;2.25;;;2.10;;
32876;SDS011;19226;51.600;8.034;2023-04-01T12:54:22;3.13;;;1.73;;
32876;SDS011;19226;51.600;8.034;2023-04-01T13:00:21;2.10;;;1.90;;
32876;SDS011;19226;51.600;8.034;2023-04-01T13:03:27;1.60;;;1.50;;
32876;SDS011;19226;51.600;8.034;2023-04-01T13:21:13;1.30;;;1.27;;
32876;SDS011;19226;51.600;8.034;2023-04-01T13:27:03;1.77;;;1.67;;
32876;SDS011;19226;51.600;8.034;2023-04-01T13:30:05;1.55;;;1.45;;
32876;SDS011;19226;51.600;8.034;2023-04-01T13:33:20;2.85;;;1.80;;
32876;SDS011;19226;51.600;8.034;2023-04-01T13:36:32;1.58;;;1.48;;
32876;SDS011;19226;51.600;8.034;2023-04-01T13:42:26;2.38;;;1.60;;
32876;SDS011;19226;51.600;8.034;2023-04-01T13:45:43;2.53;;;1.40;;
32876;SDS011;19226;51.600;8.034;2023-04-01T13:52:19;2.28;;;1.30;;
32876;SDS011;19226;51.600;8.034;2023-04-01T13:54:58;1.00;;;1.00;;
32876;SDS011;19226;51.600;8.034;2023-04-01T14:01:35;1.50;;;1.40;;
32876;SDS011;19226;51.600;8.034;2023-04-01T14:04:40;1.65;;;1.27;;
32876;SDS011;19226;51.600;8.034;2023-04-01T14:08:41;1.35;;;1.25;;
32876;SDS011;19226;51.600;8.034;2023-04-01T14:23:21;3.13;;;2.92;;
32876;SDS011;19226;51.600;8.034;2023-04-01T14:26:30;2.65;;;2.45;;
32876;SDS011;19226;51.600;8.034;2023-04-01T14:41:59;5.93;;;2.58;;
32876;SDS011;19226;51.600;8.034;2023-04-01T14:51:24;3.45;;;2.83;;
32876;SDS011;19226;51.600;8.034;2023-04-01T14:54:31;2.92;;;2.70;;
32876;SDS011;19226;51.600;8.034;2023-04-01T14:57:23;3.65;;;2.97;;
32876;SDS011;19226;51.600;8.034;2023-04-01T15:00:13;3.50;;;3.08;;
32876;SDS011;19226;51.600;8.034;2023-04-01T15:05:55;2.72;;;2.53;;
32876;SDS011;19226;51.600;8.034;2023-04-01T15:09:07;2.90;;;2.63;;
32876;SDS011;19226;51.600;8.034;2023-04-01T15:27:23;3.13;;;2.90;;
32876;SDS011;19226;51.600;8.034;2023-04-01T15:31:06;5.03;;;2.72;;
32876;SDS011;19226;51.600;8.034;2023-04-01T15:36:24;6.18;;;3.30;;
32876;SDS011;19226;51.600;8.034;2023-04-01T15:42:43;3.20;;;3.00;;
32876;SDS011;19226;51.600;8.034;2023-04-01T15:55:12;3.15;;;2.95;;
32876;SDS011;19226;51.600;8.034;2023-04-01T16:01:34;3.00;;;2.80;;
32876;SDS011;19226;51.600;8.034;2023-04-01T16:07:55;2.35;;;2.15;;
32876;SDS011;19226;51.600;8.034;2023-04-01T16:11:21;2.28;;;2.17;;
32876;SDS011;19226;51.600;8.034;2023-04-01T16:20:34;4.22;;;3.22;;
32876;SDS011;19226;51.600;8.034;2023-04-01T16:24:10;5.68;;;2.65;;
32876;SDS011;19226;51.600;8.034;2023-04-01T16:26:55;3.53;;;2.58;;
32876;SDS011;19226;51.600;8.034;2023-04-01T16:33:30;2.42;;;2.22;;
32876;SDS011;19226;51.600;8.034;2023-04-01T16:37:27;2.53;;;2.40;;
32876;SDS011;19226;51.600;8.034;2023-04-01T16:40:01;2.58;;;2.38;;
32876;SDS011;19226;51.600;8.034;2023-04-01T16:43:15;2.80;;;2.60;;
32876;SDS011;19226;51.600;8.034;2023-04-01T16:46:18;3.00;;;2.80;;
32876;SDS011;19226;51.600;8.034;2023-04-01T16:49:23;5.80;;;2.97;;
32876;SDS011;19226;51.600;8.034;2023-04-01T16:52:13;3.50;;;3.20;;
32876;SDS011;19226;51.600;8.034;2023-04-01T16:55:03;3.58;;;3.20;;
32876;SDS011;19226;51.600;8.034;2023-04-01T16:58:02;3.83;;;3.15;;
32876;SDS011;19226;51.600;8.034;2023-04-01T17:00:49;3.60;;;3.28;;
32876;SDS011;19226;51.600;8.034;2023-04-01T17:03:40;5.05;;;3.95;;
32876;SDS011;19226;51.600;8.034;2023-04-01T17:15:56;7.93;;;6.38;;
32876;SDS011;19226;51.600;8.034;2023-04-01T17:19:08;6.65;;;5.88;;
32876;SDS011;19226;51.600;8.034;2023-04-01T17:25:34;6.30;;;5.72;;
32876;SDS011;19226;51.600;8.034;2023-04-01T17:28:41;7.13;;;6.35;;
32876;SDS011;19226;51.600;8.034;2023-04-01T17:31:36;9.07;;;6.50;;
32876;SDS011;19226;51.600;8.034;2023-04-01T17:34:39;7.45;;;6.70;;
32876;SDS011;19226;51.600;8.034;2023-04-01T17:44:11;9.40;;;7.30;;
32876;SDS011;19226;51.600;8.034;2023-04-01T17:50:21;14.85;;;8.90;;
32876;SDS011;19226;51.600;8.034;2023-04-01T17:53:19;9.20;;;8.20;;
32876;SDS011;19226;51.600;8.034;2023-04-01T18:02:37;10.27;;;8.73;;
32876;SDS011;19226;51.600;8.034;2023-04-01T18:20:42;12.45;;;8.93;;
32876;SDS011;19226;51.600;8.034;2023-04-01T18:23:41;12.13;;;9.35;;
32876;SDS011;19226;51.600;8.034;2023-04-01T18:26:36;14.20;;;10.48;;
32876;SDS011;19226;51.600;8.034;2023-04-01T18:30:11;12.13;;;9.35;;
32876;SDS011;19226;51.600;8.034;2023-04-01T18:33:00;9.40;;;7.85;;
32876;SDS011;19226;51.600;8.034;2023-04-01T18:39:15;10.93;;;8.40;;
32876;SDS011;19226;51.600;8.034;2023-04-01T18:45:30;12.90;;;8.45;;
32876;SDS011;19226;51.600;8.034;2023-04-01T18:51:24;11.93;;;9.10;;
32876;SDS011;19226;51.600;8.034;2023-04-01T18:54:33;12.13;;;8.98;;
32876;SDS011;19226;51.600;8.034;2023-04-01T19:00:45;13.40;;;9.05;;
32876;SDS011;19226;51.600;8.034;2023-04-01T19:06:32;10.07;;;8.25;;
32876;SDS011;19226;51.600;8.034;2023-04-01T19:09:45;10.35;;;8.57;;
32876;SDS011;19226;51.600;8.034;2023-04-01T19:21:42;8.65;;;7.75;;
32876;SDS011;19226;51.600;8.034;2023-04-01T19:24:35;8.93;;;6.80;;
32876;SDS011;19226;51.600;8.034;2023-04-01T19:27:53;9.05;;;6.93;;
32876;SDS011;19226;51.600;8.034;2023-04-01T19:33:48;7.43;;;6.28;;
32876;SDS011;19226;51.600;8.034;2023-04-01T19:37:20;8.88;;;6.95;;
32876;SDS011;19226;51.600;8.034;2023-04-01T19:43:33;7.63;;;6.82;;
32876;SDS011;19226;51.600;8.034;2023-04-01T19:46:48;7.35;;;6.65;;
32876;SDS011;19226;51.600;8.034;2023-04-01T19:50:08;9.48;;;6.55;;
32876;SDS011;19226;51.600;8.034;2023-04-01T19:53:21;8.10;;;7.30;;
32876;SDS011;19226;51.600;8.034;2023-04-01T19:59:33;7.63;;;6.65;;
32876;SDS011;19226;51.600;8.034;2023-04-01T20:08:42;19.35;;;12.13;;
32876;SDS011;19226;51.600;8.034;2023-04-01T20:14:50;3.72;;;3.42;;
32876;SDS011;19226;51.600;8.034;2023-04-01T20:20:24;5.45;;;3.53;;
32876;SDS011;19226;51.600;8.034;2023-04-01T20:23:21;5.97;;;3.35;;
32876;SDS011;19226;51.600;8.034;2023-04-01T20:26:19;6.78;;;3.63;;
32876;SDS011;19226;51.600;8.034;2023-04-01T20:35:33;7.38;;;4.30;;
32876;SDS011;19226;51.600;8.034;2023-04-01T20:38:48;5.88;;;4.40;;
32876;SDS011;19226;51.600;8.034;2023-04-01T20:50:52;4.45;;;3.58;;
32876;SDS011;19226;51.600;8.034;2023-04-01T20:57:06;6.53;;;4.50;;
32876;SDS011;19226;51.600;8.034;2023-04-01T21:03:10;3.65;;;2.97;;
32876;SDS011;19226;51.600;8.034;2023-04-01T21:12:12;2.88;;;2.67;;
32876;SDS011;19226;51.600;8.034;2023-04-01T21:15:10;2.83;;;2.63;;
32876;SDS011;19226;51.600;8.034;2023-04-01T21:27:34;2.67;;;2.47;;
32876;SDS011;19226;51.600;8.034;2023-04-01T22:05:11;2.30;;;2.10;;
32876;SDS011;19226;51.600;8.034;2023-04-01T22:17:49;2.20;;;2.10;;
32876;SDS011;19226;51.600;8.034;2023-04-01T22:20:50;2.10;;;1.97;;
32876;SDS011;19226;51.600;8.034;2023-04-01T22:32:50;2.30;;;2.20;;
32876;SDS011;19226;51.600;8.034;2023-04-01T22:41:31;2.17;;;2.08;;
32876;SDS011;19226;51.600;8.034;2023-04-01T22:47:48;1.90;;;1.80;;
32876;SDS011;19226;51.600;8.034;2023-04-01T22:51:01;2.40;;;2.20;;
32876;SDS011;19226;51.600;8.034;2023-04-01T22:54:12;2.15;;;2.00;;
32876;SDS011;19226;51.600;8.034;2023-04-01T22:57:11;2.80;;;2.60;;
32876;SDS011;19226;51.600;8.034;2023-04-01T23:01:03;2.88;;;2.67;;
32876;SDS011;19226;51.600;8.034;2023-04-01T23:03:28;2.50;;;2.40;;
32876;SDS011;19226;51.600;8.034;2023-04-01T23:06:21;2.55;;;2.35;;
32876;SDS011;19226;51.600;8.034;2023-04-01T23:09:11;2.72;;;2.53;;
32876;SDS011;19226;51.600;8.034;2023-04-01T23:12:04;2.58;;;2.38;;
32876;SDS011;19226;51.600;8.034;2023-04-01T23:15:00;2.50;;;2.33;;
32876;SDS011;19226;51.600;8.034;2023-04-01T23:29:49;2.47;;;2.30;;
32876;SDS011;19226;51.600;8.034;2023-04-01T23:32:33;3.00;;;2.80;;
32876;SDS011;19226;51.600;8.034;2023-04-01T23:35:18;3.00;;;2.78;;
32876;SDS011;19226;51.600;8.034;2023-04-01T23:38:03;3.13;;;2.90;;
32876;SDS011;19226;51.600;8.034;2023-04-01T23:40:48;3.20;;;3.00;;
32876;SDS011;19226;51.600;8.034;2023-04-01T23:43:38;3.78;;;3.47;;
32876;SDS011;19226;51.600;8.034;2023-04-01T23:46:25;4.57;;;4.00;;
32876;SDS011;19226;51.600;8.034;2023-04-01T23:49:16;5.82;;;3.65;;
32876;SDS011;19226;51.600;8.034;2023-04-01T23:52:26;3.25;;;2.95;;
32876;SDS011;19226;51.600;8.034;2023-04-01T23:55:16;3.60;;;3.30;;
